ADDS METAR Data INFO
IDs: Format: Raw Decoded Include TAF

Data at: 1805 UTC 12 Dec 2017

METAR for:GCLA (La Palma Arpt, --, CR)
Text:GCLA 121800Z 36019KT 330V040 9999 FEW030 SCT060 18/12 Q1022
Temperature: 18.0°C ( 64°F)
Dewpoint: 12.0°C ( 54°F) [RH = 68%]
Pressure (altimeter):30.18 inches Hg (1022.0 mb)
Winds:from the N (360 degrees) at 22 MPH (19 knots; 9.8 m/s)
Visibility:6 or more sm (10+ km)
Ceiling:at least 12,000 feet AGL
Clouds: few clouds at 3000 feet AGL, scattered clouds at 6000 feet AGL